Time;durP1;ratioP1;P1;durP2;ratioP2;P2;SDS_P1;SDS_P2;PMS_P1;PMS_P2;Temp;Humidity;BMP_temperature;BMP_pressure;BME280_temperature;BME280_humidity;BME280_pressure;Samples;Min_cycle;Max_cycle;Signal;HPM_P1;HPM_P2
2023/05/02 00:01:56;;;;;;;7.55;4.60;;;15.60;99.90;;;;;;5038955;28;20204;-70
2023/05/02 00:04:23;;;;;;;6.68;4.68;;;15.60;99.90;;;;;;5048389;28;20200;-72
2023/05/02 00:06:50;;;;;;;7.80;5.10;;;15.60;99.90;;;;;;5041362;28;20219;-72
2023/05/02 00:09:15;;;;;;;7.65;5.22;;;15.60;99.90;;;;;;5044088;28;20172;-71
2023/05/02 00:11:41;;;;;;;6.50;4.78;;;15.60;99.90;;;;;;5045053;28;20245;-71
2023/05/02 00:14:07;;;;;;;12.88;5.43;;;15.60;99.90;;;;;;5049709;28;20227;-72
2023/05/02 00:16:32;;;;;;;8.68;4.70;;;15.60;99.90;;;;;;5049117;28;20222;-71
2023/05/02 00:18:58;;;;;;;9.65;4.63;;;15.50;99.90;;;;;;5050094;28;20208;-71
2023/05/02 00:21:23;;;;;;;7.57;4.60;;;15.40;99.90;;;;;;5050916;28;20175;-72
2023/05/02 00:23:50;;;;;;;8.63;4.65;;;15.40;99.90;;;;;;5048901;28;20215;-73
2023/05/02 00:26:16;;;;;;;8.90;5.07;;;15.30;99.90;;;;;;5047101;28;20204;-70
2023/05/02 00:28:41;;;;;;;9.10;4.75;;;15.20;99.90;;;;;;5048155;28;20204;-72
2023/05/02 00:31:08;;;;;;;8.45;4.78;;;15.20;99.90;;;;;;5046124;28;20214;-72
2023/05/02 00:33:33;;;;;;;6.82;4.82;;;15.20;99.90;;;;;;5046795;28;20195;-72
2023/05/02 00:35:59;;;;;;;9.55;4.78;;;15.20;99.90;;;;;;5043055;28;20693;-71
2023/05/02 00:38:24;;;;;;;6.53;4.75;;;15.20;99.90;;;;;;5044786;28;20195;-72
2023/05/02 00:40:51;;;;;;;7.45;4.70;;;15.20;99.90;;;;;;5041500;28;20200;-73
2023/05/02 00:43:17;;;;;;;8.52;4.82;;;15.10;99.90;;;;;;5044165;28;20254;-72
2023/05/02 00:45:45;;;;;;;7.47;4.63;;;15.10;99.90;;;;;;5049303;28;20200;-72
2023/05/02 00:48:11;;;;;;;7.20;4.90;;;15.00;99.90;;;;;;5067351;28;20666;-71
2023/05/02 00:50:42;;;;;;;6.22;4.70;;;14.90;99.90;;;;;;5051920;28;20208;-70
2023/05/02 00:53:09;;;;;;;7.28;4.82;;;14.90;99.90;;;;;;5047156;28;20261;-71
2023/05/02 00:55:35;;;;;;;8.48;5.05;;;15.00;99.90;;;;;;5049981;28;20220;-71
2023/05/02 00:58:11;;;;;;;10.10;4.82;;;14.90;99.90;;;;;;5046397;28;20281;-71
2023/05/02 01:00:59;;;;;;;7.45;4.45;;;14.80;99.90;;;;;;5046362;28;20195;-71
2023/05/02 01:03:52;;;;;;;7.43;5.35;;;14.80;99.90;;;;;;5048214;28;20207;-71
2023/05/02 01:06:36;;;;;;;8.20;5.28;;;14.70;99.90;;;;;;5049256;28;20227;-73
2023/05/02 01:09:44;;;;;;;8.45;5.53;;;14.60;99.90;;;;;;5045577;28;20208;-71
2023/05/02 01:12:34;;;;;;;10.07;4.90;;;14.60;99.90;;;;;;5044576;28;20770;-72
2023/05/02 01:15:04;;;;;;;5.95;5.13;;;14.50;99.90;;;;;;5044057;28;20295;-71
2023/05/02 01:17:33;;;;;;;8.60;4.93;;;14.50;99.90;;;;;;5048518;28;20218;-71
2023/05/02 01:20:03;;;;;;;7.18;5.13;;;14.50;99.90;;;;;;5045852;28;20204;-69
2023/05/02 01:22:30;;;;;;;9.88;4.90;;;14.60;99.90;;;;;;5040292;28;20580;-70
2023/05/02 01:25:18;;;;;;;9.88;6.13;;;14.50;99.90;;;;;;5043909;28;20172;-71
2023/05/02 01:27:56;;;;;;;8.02;5.07;;;14.50;99.90;;;;;;5042419;28;20228;-71
2023/05/02 01:30:25;;;;;;;7.15;4.82;;;14.50;99.90;;;;;;5052098;28;20175;-70
2023/05/02 01:32:52;;;;;;;8.55;4.93;;;14.50;99.90;;;;;;5052317;28;20639;-73
2023/05/02 01:35:20;;;;;;;10.00;5.27;;;14.50;99.90;;;;;;5052434;28;20218;-72
2023/05/02 01:37:47;;;;;;;7.88;4.45;;;14.50;99.90;;;;;;5047365;28;20660;-71
2023/05/02 01:40:16;;;;;;;8.07;5.03;;;14.60;99.90;;;;;;5044026;28;20215;-71
2023/05/02 01:42:45;;;;;;;6.18;4.47;;;14.50;99.90;;;;;;5046653;28;20179;-71
2023/05/02 01:45:12;;;;;;;7.85;4.93;;;14.50;99.90;;;;;;5047772;28;20677;-72
2023/05/02 01:47:40;;;;;;;5.70;4.38;;;14.40;99.90;;;;;;5047869;28;20199;-72
2023/05/02 01:50:08;;;;;;;8.88;5.70;;;14.40;99.90;;;;;;5045155;28;20208;-72
2023/05/02 01:52:35;;;;;;;6.20;4.27;;;14.30;99.90;;;;;;5043579;28;20208;-71
2023/05/02 01:55:03;;;;;;;8.77;5.90;;;14.20;99.90;;;;;;5042777;28;20690;-71
2023/05/02 01:57:30;;;;;;;6.35;4.75;;;14.30;99.90;;;;;;5044152;28;20187;-70
2023/05/02 01:59:57;;;;;;;7.77;5.17;;;14.20;99.90;;;;;;5041700;28;20593;-70
2023/05/02 02:02:28;;;;;;;8.37;4.97;;;14.10;99.90;;;;;;5043166;28;20214;-71
2023/05/02 02:04:56;;;;;;;8.03;5.30;;;14.20;99.90;;;;;;5040497;28;20586;-72
2023/05/02 02:07:22;;;;;;;7.38;5.28;;;14.30;99.90;;;;;;5043906;28;20202;-72
2023/05/02 02:09:47;;;;;;;8.55;5.10;;;14.20;99.90;;;;;;5043030;28;20589;-72
2023/05/02 02:12:23;;;;;;;7.47;4.90;;;14.20;99.90;;;;;;5046897;28;20259;-71
2023/05/02 02:15:01;;;;;;;8.57;4.87;;;14.20;99.90;;;;;;5039687;28;20203;-71
2023/05/02 02:17:36;;;;;;;6.72;4.57;;;14.10;99.90;;;;;;5046454;28;20203;-69
2023/05/02 02:20:08;;;;;;;7.63;4.53;;;14.00;99.90;;;;;;5047613;28;20210;-72
2023/05/02 02:22:38;;;;;;;9.40;4.90;;;14.00;99.90;;;;;;5048340;28;20200;-70
2023/05/02 02:25:06;;;;;;;10.03;4.93;;;13.90;99.90;;;;;;5047909;28;20282;-72
2023/05/02 02:27:32;;;;;;;8.63;5.03;;;13.90;99.90;;;;;;5048055;28;20180;-69
2023/05/02 02:29:58;;;;;;;7.13;4.43;;;13.90;99.90;;;;;;5043322;28;20216;-72
2023/05/02 02:32:23;;;;;;;9.10;5.20;;;13.90;99.90;;;;;;5046408;28;20261;-71
2023/05/02 02:34:50;;;;;;;6.37;4.60;;;13.80;99.90;;;;;;5041265;28;20651;-71
2023/05/02 02:37:28;;;;;;;10.30;4.13;;;13.80;99.90;;;;;;5041896;28;20220;-70
2023/05/02 02:40:03;;;;;;;7.80;4.37;;;13.70;99.90;;;;;;5046129;28;20558;-71
2023/05/02 02:42:59;;;;;;;6.03;4.07;;;13.70;99.90;;;;;;5042803;28;20182;-71
2023/05/02 02:45:39;;;;;;;6.87;4.50;;;13.50;99.90;;;;;;5003135;28;20239;-71
2023/05/02 02:48:47;;;;;;;7.67;4.17;;;13.50;99.90;;;;;;5040432;28;20732;-71
2023/05/02 02:51:33;;;;;;;5.97;4.00;;;13.50;99.90;;;;;;5041199;28;20204;-71
2023/05/02 02:54:38;;;;;;;5.57;3.63;;;13.50;99.90;;;;;;5046616;28;20215;-71
2023/05/02 02:57:13;;;;;;;6.20;3.90;;;13.60;99.90;;;;;;5026803;28;20616;-72
2023/05/02 02:59:45;;;;;;;6.93;3.50;;;13.40;99.90;;;;;;5048089;28;20207;-71
2023/05/02 03:02:16;;;;;;;7.40;4.00;;;13.40;99.90;;;;;;5046586;28;20212;-71
2023/05/02 03:04:44;;;;;;;9.67;4.60;;;13.30;99.90;;;;;;5042313;28;20215;-71
2023/05/02 03:07:10;;;;;;;8.40;3.67;;;13.30;99.90;;;;;;5044137;28;20238;-72
2023/05/02 03:09:46;;;;;;;6.73;4.40;;;13.10;99.90;;;;;;5039818;28;20183;-71
2023/05/02 03:12:12;;;;;;;5.47;4.07;;;13.10;99.90;;;;;;5043002;28;20203;-71
2023/05/02 03:14:38;;;;;;;9.83;4.20;;;13.10;99.90;;;;;;5047782;28;20736;-72
2023/05/02 03:17:04;;;;;;;7.37;4.60;;;13.00;99.90;;;;;;5040929;28;20707;-71
2023/05/02 03:19:30;;;;;;;9.73;3.83;;;13.00;99.90;;;;;;5040310;28;20210;-71
2023/05/02 03:21:56;;;;;;;7.80;4.03;;;13.00;99.90;;;;;;5040013;28;20182;-73
2023/05/02 03:24:22;;;;;;;8.97;4.13;;;13.10;99.90;;;;;;5041993;28;20195;-71
2023/05/02 03:26:47;;;;;;;5.17;3.70;;;12.90;99.90;;;;;;5045841;28;20203;-72
2023/05/02 03:29:14;;;;;;;6.23;4.60;;;12.90;99.90;;;;;;5040035;28;20327;-71
2023/05/02 03:31:39;;;;;;;7.20;4.13;;;12.90;99.90;;;;;;5048794;28;20220;-72
2023/05/02 03:34:05;;;;;;;6.73;4.33;;;12.90;99.90;;;;;;5045855;28;20251;-71
2023/05/02 03:36:31;;;;;;;7.27;4.30;;;12.90;99.90;;;;;;5045520;28;20204;-71
2023/05/02 03:38:57;;;;;;;7.47;4.60;;;12.80;99.90;;;;;;5046568;28;20303;-71
2023/05/02 03:41:23;;;;;;;9.43;5.23;;;12.80;99.90;;;;;;5044495;28;20674;-72
2023/05/02 03:43:49;;;;;;;6.03;3.97;;;12.70;99.90;;;;;;5045048;28;20212;-73
2023/05/02 03:46:15;;;;;;;8.17;4.07;;;12.80;99.90;;;;;;5040218;28;20689;-70
2023/05/02 03:48:41;;;;;;;8.10;5.33;;;12.80;99.90;;;;;;5045579;28;20195;-73
2023/05/02 03:51:08;;;;;;;6.83;4.10;;;12.90;99.90;;;;;;5040670;28;20194;-73
2023/05/02 03:53:34;;;;;;;7.37;4.23;;;12.80;99.90;;;;;;5041211;28;20709;-72
2023/05/02 03:56:00;;;;;;;7.80;4.20;;;12.90;99.90;;;;;;5039782;28;20291;-70
2023/05/02 03:58:26;;;;;;;8.97;4.67;;;12.70;99.90;;;;;;5042179;28;20517;-72
2023/05/02 04:00:52;;;;;;;6.70;4.37;;;12.80;99.90;;;;;;5044683;28;20540;-71
2023/05/02 04:03:18;;;;;;;7.40;4.53;;;12.90;99.90;;;;;;5040548;28;21820;-72
2023/05/02 04:05:45;;;;;;;6.63;4.20;;;12.80;99.90;;;;;;5046604;28;20197;-72
2023/05/02 04:08:10;;;;;;;8.93;4.00;;;12.80;99.90;;;;;;5042928;28;20212;-72
2023/05/02 04:10:36;;;;;;;13.47;3.93;;;12.70;99.90;;;;;;5048637;28;20200;-72
2023/05/02 04:13:02;;;;;;;6.20;3.87;;;12.70;99.90;;;;;;5047564;28;20290;-73
2023/05/02 04:15:29;;;;;;;6.27;3.33;;;12.70;99.90;;;;;;5045169;28;20180;-74
2023/05/02 04:17:57;;;;;;;6.67;3.80;;;12.70;99.90;;;;;;5043705;28;20224;-72
2023/05/02 04:20:22;;;;;;;6.17;3.40;;;12.60;99.90;;;;;;5040313;28;20204;-73
2023/05/02 04:22:49;;;;;;;6.93;4.40;;;12.80;99.90;;;;;;5046030;28;20195;-72
2023/05/02 04:25:15;;;;;;;5.97;3.70;;;12.80;99.90;;;;;;5038262;28;20200;-72
2023/05/02 04:27:40;;;;;;;7.03;3.37;;;12.90;99.90;;;;;;5034683;28;20177;-72
2023/05/02 04:30:07;;;;;;;6.40;3.50;;;13.00;99.90;;;;;;5041975;28;20682;-74
2023/05/02 04:32:32;;;;;;;8.57;3.60;;;13.00;99.90;;;;;;5041883;28;20207;-71
2023/05/02 04:34:58;;;;;;;5.70;3.40;;;13.10;99.90;;;;;;5041289;28;20273;-71
2023/05/02 04:37:24;;;;;;;10.80;3.57;;;13.30;99.90;;;;;;5043225;28;20211;-71
2023/05/02 04:39:50;;;;;;;6.30;4.40;;;13.40;99.90;;;;;;5038653;28;20176;-71
2023/05/02 04:42:16;;;;;;;7.47;3.43;;;13.50;99.90;;;;;;5042636;28;20681;-72
2023/05/02 04:44:41;;;;;;;5.85;3.55;;;13.40;99.90;;;;;;5038235;28;20272;-71
2023/05/02 04:47:07;;;;;;;7.15;3.47;;;13.70;99.90;;;;;;5040899;28;20282;-72
2023/05/02 04:49:32;;;;;;;5.10;3.35;;;14.00;99.90;;;;;;5044432;28;20199;-71
2023/05/02 04:51:58;;;;;;;5.10;3.28;;;14.40;99.90;;;;;;5041653;28;20313;-72
2023/05/02 04:54:24;;;;;;;6.18;3.78;;;14.50;99.90;;;;;;5042035;28;20200;-72
2023/05/02 04:56:49;;;;;;;8.02;4.05;;;14.80;99.90;;;;;;5044089;28;20589;-71
2023/05/02 04:59:15;;;;;;;7.72;3.75;;;14.90;99.90;;;;;;5041090;28;20209;-71
2023/05/02 05:01:41;;;;;;;5.57;3.38;;;14.70;99.90;;;;;;5045976;28;20217;-71
2023/05/02 05:04:07;;;;;;;5.22;3.30;;;14.50;99.90;;;;;;5046139;28;20208;-71
2023/05/02 05:06:32;;;;;;;5.72;3.58;;;14.30;99.90;;;;;;5042113;28;20705;-71
2023/05/02 05:08:58;;;;;;;10.15;3.75;;;14.00;99.90;;;;;;5045346;28;20219;-71
2023/05/02 05:11:25;;;;;;;11.68;4.30;;;13.90;99.90;;;;;;5043698;28;20234;-71
2023/05/02 05:13:50;;;;;;;7.00;3.90;;;13.70;99.90;;;;;;5042625;28;20207;-70
2023/05/02 05:16:16;;;;;;;4.93;3.25;;;13.90;99.90;;;;;;5046154;28;20242;-69
2023/05/02 05:18:42;;;;;;;6.82;4.25;;;13.70;99.90;;;;;;5044495;28;20184;-72
2023/05/02 05:21:08;;;;;;;9.25;4.22;;;13.70;99.90;;;;;;5040824;28;20199;-71
2023/05/02 05:23:35;;;;;;;8.90;4.63;;;13.50;99.90;;;;;;5044103;28;20234;-70
2023/05/02 05:26:11;;;;;;;8.02;4.13;;;13.60;99.90;;;;;;5040756;28;20207;-72
2023/05/02 05:28:37;;;;;;;6.13;4.03;;;13.80;99.90;;;;;;5041347;28;20685;-71
2023/05/02 05:31:12;;;;;;;5.72;3.75;;;14.20;99.90;;;;;;5049984;28;20238;-73
2023/05/02 05:33:38;;;;;;;14.25;7.22;;;15.60;99.90;;;;;;5046624;28;20208;-72
2023/05/02 05:36:05;;;;;;;8.45;3.80;;;16.60;99.90;;;;;;5045940;28;20601;-71
2023/05/02 05:38:30;;;;;;;8.02;4.57;;;17.30;99.90;;;;;;5046391;28;20199;-73
2023/05/02 05:40:56;;;;;;;7.45;4.55;;;18.30;99.90;;;;;;5045225;28;20782;-72
2023/05/02 05:43:22;;;;;;;8.27;4.13;;;18.50;99.90;;;;;;5045160;28;20258;-71
2023/05/02 05:45:50;;;;;;;9.32;4.18;;;19.00;99.90;;;;;;5048121;28;20253;-71
2023/05/02 05:48:16;;;;;;;7.78;4.53;;;19.30;99.90;;;;;;5042185;28;20176;-74
2023/05/02 05:50:41;;;;;;;9.60;4.85;;;19.50;99.90;;;;;;5059927;28;20314;-71
2023/05/02 05:53:07;;;;;;;8.07;3.80;;;19.40;99.90;;;;;;5044515;28;20239;-71
2023/05/02 05:55:33;;;;;;;7.72;4.63;;;20.00;99.90;;;;;;5041914;28;20624;-71
2023/05/02 05:57:58;;;;;;;8.55;4.70;;;20.40;99.90;;;;;;5040910;28;20219;-74
2023/05/02 06:00:24;;;;;;;7.60;4.20;;;20.20;99.90;;;;;;5042763;28;20182;-73
2023/05/02 06:02:50;;;;;;;8.98;3.90;;;19.40;99.90;;;;;;5041525;28;20694;-72
2023/05/02 06:05:16;;;;;;;6.30;4.38;;;19.70;99.90;;;;;;5047598;28;20257;-72
2023/05/02 06:07:41;;;;;;;5.45;3.75;;;20.90;99.90;;;;;;5044860;28;20592;-73
2023/05/02 06:10:08;;;;;;;9.23;4.43;;;21.60;99.90;;;;;;5045953;28;20212;-72
2023/05/02 06:12:34;;;;;;;6.80;5.05;;;21.80;99.90;;;;;;5043558;28;20208;-71
2023/05/02 06:15:00;;;;;;;6.35;5.03;;;21.40;99.90;;;;;;5048954;28;20768;-72
2023/05/02 06:17:26;;;;;;;9.32;5.25;;;20.50;99.90;;;;;;5045629;28;20261;-71
2023/05/02 06:19:52;;;;;;;8.57;5.03;;;20.70;99.90;;;;;;5047508;28;20199;-71
2023/05/02 06:22:17;;;;;;;8.63;5.85;;;20.50;99.90;;;;;;5041075;28;20211;-71
2023/05/02 06:24:43;;;;;;;7.40;5.50;;;21.10;99.90;;;;;;5047078;28;20222;-71
2023/05/02 06:27:08;;;;;;;7.93;5.82;;;21.10;99.90;;;;;;5043761;28;20654;-71
2023/05/02 06:29:34;;;;;;;10.20;7.07;;;21.00;99.90;;;;;;5046760;28;20254;-71
2023/05/02 06:32:00;;;;;;;10.10;6.72;;;20.30;99.90;;;;;;5041628;28;20207;-72
2023/05/02 06:34:25;;;;;;;10.93;7.07;;;20.70;99.90;;;;;;5041300;28;20212;-72
2023/05/02 06:36:57;;;;;;;13.60;8.88;;;20.60;99.90;;;;;;5041960;28;20196;-70
2023/05/02 06:39:23;;;;;;;12.85;7.80;;;20.90;99.90;;;;;;5039619;28;20177;-71
2023/05/02 06:41:49;;;;;;;12.27;7.70;;;21.40;99.90;;;;;;5040954;28;20523;-70
2023/05/02 06:44:15;;;;;;;17.40;8.05;;;21.80;99.90;;;;;;5047489;28;20429;-70
2023/05/02 06:46:41;;;;;;;14.23;8.23;;;21.90;99.90;;;;;;5042819;28;20212;-70
2023/05/02 06:49:06;;;;;;;9.77;7.53;;;22.10;99.90;;;;;;5044533;28;20218;-73
2023/05/02 06:51:32;;;;;;;15.88;9.10;;;22.30;99.90;;;;;;5046255;28;20187;-72
2023/05/02 06:53:58;;;;;;;11.05;7.70;;;21.10;99.90;;;;;;5045857;28;20215;-72
2023/05/02 06:56:24;;;;;;;12.05;7.38;;;21.50;99.90;;;;;;5041165;28;20281;-70
2023/05/02 06:58:50;;;;;;;9.80;7.00;;;22.00;99.90;;;;;;5044382;28;20207;-75
2023/05/02 07:01:17;;;;;;;10.50;6.63;;;22.40;99.90;;;;;;5039023;28;20208;-73
2023/05/02 07:03:42;;;;;;;7.50;5.95;;;22.80;99.90;;;;;;5043241;28;20200;-71
2023/05/02 07:06:08;;;;;;;8.73;6.03;;;23.10;99.90;;;;;;5045475;28;20549;-69
2023/05/02 07:08:34;;;;;;;8.73;7.05;;;20.60;99.90;;;;;;5040521;28;20215;-72
2023/05/02 07:11:00;;;;;;;10.02;7.60;;;19.60;99.90;;;;;;5045415;28;20207;-72
2023/05/02 07:13:26;;;;;;;10.27;6.20;;;19.10;99.90;;;;;;5057576;28;20215;-72
2023/05/02 07:15:52;;;;;;;9.18;7.10;;;17.90;99.90;;;;;;5044845;28;20241;-72
2023/05/02 07:18:18;;;;;;;10.85;7.53;;;17.70;99.90;;;;;;5055936;28;20571;-72
2023/05/02 07:20:43;;;;;;;9.25;6.90;;;17.50;99.90;;;;;;5041332;28;20203;-71
2023/05/02 07:23:09;;;;;;;10.93;6.82;;;17.40;99.90;;;;;;5041136;28;20215;-71
2023/05/02 07:25:35;;;;;;;11.52;6.78;;;17.80;99.90;;;;;;5041412;28;20197;-72
2023/05/02 07:28:01;;;;;;;8.80;5.95;;;17.60;99.90;;;;;;5041914;28;20227;-72
2023/05/02 07:30:26;;;;;;;11.88;7.15;;;17.90;99.90;;;;;;5043769;28;20258;-71
2023/05/02 07:32:52;;;;;;;11.43;6.43;;;17.90;99.90;;;;;;5045273;28;20221;-70
2023/05/02 07:35:18;;;;;;;8.45;5.60;;;17.40;99.90;;;;;;5042622;28;20624;-71
2023/05/02 07:37:43;;;;;;;7.43;5.10;;;17.60;99.90;;;;;;5048287;28;20230;-71
2023/05/02 07:40:09;;;;;;;6.95;5.20;;;17.40;99.90;;;;;;5041768;28;20215;-72
2023/05/02 07:42:35;;;;;;;9.95;6.78;;;17.40;99.90;;;;;;5039677;28;20176;-72
2023/05/02 07:45:01;;;;;;;10.10;6.25;;;16.90;99.90;;;;;;5044823;28;20233;-73
2023/05/02 07:47:28;;;;;;;11.45;6.53;;;16.50;99.90;;;;;;5098284;23;20222;-75
2023/05/02 07:49:54;;;;;;;9.57;6.30;;;16.40;99.90;;;;;;5086541;28;20588;-76
2023/05/02 07:52:20;;;;;;;9.80;6.25;;;16.10;99.90;;;;;;5083381;28;20224;-76
2023/05/02 07:54:49;;;;;;;10.55;6.20;;;16.00;99.90;;;;;;5081445;28;20637;-76
2023/05/02 07:57:15;;;;;;;8.68;6.03;;;15.60;99.90;;;;;;5079762;28;20232;-76
2023/05/02 07:59:41;;;;;;;8.43;6.03;;;15.20;99.90;;;;;;5076018;28;20697;-75
2023/05/02 08:02:06;;;;;;;11.70;6.65;;;15.00;99.90;;;;;;5089433;28;20221;-76
2023/05/02 08:04:33;;;;;;;9.60;5.88;;;14.90;99.90;;;;;;5085851;28;20286;-76
2023/05/02 08:06:59;;;;;;;8.48;5.50;;;15.20;99.90;;;;;;5086746;28;20218;-76
2023/05/02 08:09:25;;;;;;;10.82;5.43;;;15.50;99.90;;;;;;5085036;28;20262;-75
2023/05/02 08:11:51;;;;;;;7.78;4.88;;;15.40;99.90;;;;;;5084218;28;20286;-76
2023/05/02 08:14:16;;;;;;;6.82;4.50;;;15.30;99.90;;;;;;5080632;28;20744;-76
2023/05/02 08:16:42;;;;;;;7.53;5.10;;;15.50;99.90;;;;;;5090499;28;20583;-76
2023/05/02 08:19:08;;;;;;;7.88;4.60;;;15.50;99.90;;;;;;5083989;28;20203;-76
2023/05/02 08:21:34;;;;;;;6.72;4.78;;;15.60;99.90;;;;;;5088429;28;20183;-76
2023/05/02 08:24:00;;;;;;;10.25;5.10;;;15.90;99.90;;;;;;5081786;28;20221;-77
2023/05/02 08:26:26;;;;;;;8.77;5.20;;;16.00;99.90;;;;;;5084040;28;20295;-76
2023/05/02 08:28:52;;;;;;;7.25;5.20;;;16.30;99.90;;;;;;5082140;28;20199;-75
2023/05/02 08:31:17;;;;;;;9.73;5.05;;;16.00;99.90;;;;;;5078960;28;20217;-76
2023/05/02 08:33:43;;;;;;;11.27;5.80;;;16.00;99.90;;;;;;5081867;28;20202;-77
2023/05/02 08:36:10;;;;;;;8.50;5.63;;;15.80;99.90;;;;;;5081229;28;20240;-76
2023/05/02 08:38:36;;;;;;;7.05;4.95;;;15.80;99.90;;;;;;5080389;28;20203;-77
2023/05/02 08:41:02;;;;;;;8.18;4.60;;;15.50;99.90;;;;;;5095512;28;20233;-76
2023/05/02 08:43:30;;;;;;;7.32;5.10;;;15.30;99.90;;;;;;5093053;28;20202;-77
2023/05/02 08:46:00;;;;;;;6.72;4.10;;;15.40;99.90;;;;;;5091286;28;20598;-76
2023/05/02 08:48:27;;;;;;;7.30;4.22;;;15.50;99.90;;;;;;5089660;28;20627;-76
2023/05/02 08:50:53;;;;;;;9.43;4.20;;;15.50;99.90;;;;;;5088497;28;20290;-75
2023/05/02 08:53:20;;;;;;;7.30;4.30;;;15.60;99.90;;;;;;5094439;28;20209;-76
2023/05/02 08:55:47;;;;;;;6.47;3.55;;;15.70;99.90;;;;;;5097680;28;20205;-77
2023/05/02 08:58:13;;;;;;;7.95;3.97;;;15.70;99.90;;;;;;5086686;28;20317;-76
2023/05/02 09:00:41;;;;;;;9.57;4.32;;;15.70;99.90;;;;;;5081834;28;20303;-76
2023/05/02 09:03:18;;;;;;;6.22;3.63;;;15.50;99.90;;;;;;5087859;28;20182;-76
2023/05/02 09:05:49;;;;;;;5.68;3.65;;;15.30;99.90;;;;;;5093737;28;20236;-76
2023/05/02 09:08:23;;;;;;;6.13;3.40;;;15.50;99.90;;;;;;5088063;28;20268;-76
2023/05/02 09:10:50;;;;;;;5.55;3.67;;;15.50;99.90;;;;;;5086035;28;20579;-77
2023/05/02 09:13:31;;;;;;;5.95;4.13;;;15.30;99.90;;;;;;5080431;28;20344;-76
2023/05/02 09:16:27;;;;;;;5.10;3.10;;;15.60;99.90;;;;;;5086838;28;20597;-77
2023/05/02 09:18:57;;;;;;;7.32;3.30;;;15.60;99.90;;;;;;5088952;28;20209;-76
2023/05/02 09:21:25;;;;;;;5.95;3.60;;;15.50;99.90;;;;;;5098119;28;20180;-76
2023/05/02 09:23:56;;;;;;;4.30;3.08;;;15.40;99.90;;;;;;5095966;28;20212;-77
2023/05/02 09:26:30;;;;;;;4.40;2.78;;;15.30;99.90;;;;;;5089570;28;20254;-77
2023/05/02 09:28:56;;;;;;;4.85;3.38;;;15.00;99.90;;;;;;5095324;28;20205;-76
2023/05/02 09:31:26;;;;;;;4.78;3.55;;;14.90;99.90;;;;;;5081713;28;20230;-75
2023/05/02 09:33:53;;;;;;;4.80;3.42;;;15.00;99.90;;;;;;5094215;28;20178;-78
2023/05/02 09:36:20;;;;;;;5.75;3.38;;;15.10;99.90;;;;;;5083610;28;20229;-75
2023/05/02 09:38:48;;;;;;;6.53;4.10;;;15.10;99.90;;;;;;5081266;28;20194;-75
2023/05/02 09:41:14;;;;;;;8.27;5.07;;;15.00;99.90;;;;;;5082000;28;20206;-77
2023/05/02 09:43:40;;;;;;;5.60;3.67;;;15.10;99.90;;;;;;5086949;28;20259;-77
2023/05/02 09:46:10;;;;;;;6.55;4.65;;;15.00;99.90;;;;;;5084944;28;20692;-76
2023/05/02 09:48:53;;;;;;;4.57;3.10;;;15.00;99.90;;;;;;5089587;28;20179;-76
2023/05/02 09:51:20;;;;;;;6.38;3.60;;;15.00;99.90;;;;;;5083195;28;20206;-76
2023/05/02 09:53:47;;;;;;;6.90;3.83;;;14.80;99.90;;;;;;5084790;28;20262;-76
2023/05/02 09:56:13;;;;;;;5.18;3.22;;;15.00;99.90;;;;;;5087476;28;20270;-76
2023/05/02 09:58:38;;;;;;;5.95;3.65;;;15.30;99.90;;;;;;5096999;28;20205;-76
2023/05/02 10:01:04;;;;;;;6.47;3.28;;;15.60;99.90;;;;;;5091000;28;20213;-77
2023/05/02 10:03:31;;;;;;;7.82;4.13;;;15.60;99.90;;;;;;5081389;28;20178;-76
2023/05/02 10:05:57;;;;;;;8.07;3.75;;;15.60;99.90;;;;;;5081667;28;20215;-76
2023/05/02 10:08:27;;;;;;;9.52;4.20;;;15.70;99.90;;;;;;5081399;28;20870;-76
2023/05/02 10:10:57;;;;;;;6.30;3.95;;;15.60;99.90;;;;;;5086375;28;20268;-77
2023/05/02 10:13:31;;;;;;;6.00;4.25;;;15.20;99.90;;;;;;5084848;28;20206;-76
2023/05/02 10:16:04;;;;;;;5.18;3.58;;;15.20;99.90;;;;;;5089445;28;20261;-76
2023/05/02 10:18:59;;;;;;;21.70;13.32;;;15.10;99.90;;;;;;5083385;28;20332;-76
2023/05/02 10:21:28;;;;;;;5.85;4.28;;;15.30;99.90;;;;;;5076367;28;20211;-76
2023/05/02 10:23:55;;;;;;;7.63;3.88;;;15.20;99.90;;;;;;5086310;28;20198;-76
2023/05/02 10:26:22;;;;;;;6.82;3.45;;;15.10;99.90;;;;;;5080844;28;20720;-75
2023/05/02 10:28:49;;;;;;;14.98;11.27;;;14.70;99.90;;;;;;5085294;28;20220;-76
2023/05/02 10:31:16;;;;;;;4.20;3.22;;;14.70;99.90;;;;;;5078396;28;20218;-76
2023/05/02 10:33:42;;;;;;;3.70;2.60;;;14.20;99.90;;;;;;5079462;28;20642;-76
2023/05/02 10:36:11;;;;;;;7.25;3.25;;;14.30;99.90;;;;;;5090194;28;20191;-76
2023/05/02 10:38:37;;;;;;;4.95;2.65;;;14.10;99.90;;;;;;5087185;28;20211;-76
2023/05/02 10:41:11;;;;;;;5.13;2.90;;;13.90;99.90;;;;;;5087811;28;20205;-76
2023/05/02 10:43:37;;;;;;;4.70;2.90;;;13.80;99.90;;;;;;5095690;28;20202;-75
2023/05/02 10:46:36;;;;;;;3.37;2.47;;;13.90;99.90;;;;;;5083200;28;20297;-76
2023/05/02 10:49:12;;;;;;;6.35;2.70;;;14.00;99.90;;;;;;5077669;28;20205;-78
2023/05/02 10:51:40;;;;;;;7.93;2.90;;;13.70;99.90;;;;;;5078863;28;20170;-76
2023/05/02 10:54:15;;;;;;;5.85;3.08;;;13.70;99.90;;;;;;5086885;28;20244;-76
2023/05/02 10:57:02;;;;;;;7.47;3.40;;;13.80;99.90;;;;;;5087116;28;20214;-76
2023/05/02 10:59:48;;;;;;;7.43;3.80;;;13.90;99.90;;;;;;5083560;28;20203;-75
2023/05/02 11:02:24;;;;;;;5.40;4.07;;;13.80;99.90;;;;;;5079996;28;20881;-76
2023/05/02 11:05:06;;;;;;;17.90;11.57;;;13.20;99.90;;;;;;5083357;28;20269;-76
2023/05/02 11:07:36;;;;;;;16.90;8.27;;;13.30;99.90;;;;;;5082758;28;20214;-76
2023/05/02 11:10:17;;;;;;;12.10;5.65;;;13.10;99.90;;;;;;5081397;28;20253;-76
2023/05/02 11:12:45;;;;;;;22.63;9.87;;;13.20;99.90;;;;;;5084223;28;20178;-78
2023/05/02 11:15:10;;;;;;;13.43;6.30;;;13.30;99.90;;;;;;5080594;28;20243;-76
2023/05/02 11:17:58;;;;;;;14.57;5.87;;;13.40;99.90;;;;;;5094105;28;20732;-76
2023/05/02 11:20:23;;;;;;;11.63;4.67;;;13.50;99.90;;;;;;5080761;28;20565;-74
2023/05/02 11:22:50;;;;;;;10.70;4.77;;;13.50;99.90;;;;;;5083694;28;20204;-76
2023/05/02 11:25:33;;;;;;;15.15;4.50;;;13.60;99.90;;;;;;5092437;28;20696;-76
2023/05/02 11:27:59;;;;;;;11.80;4.53;;;13.90;99.90;;;;;;5089818;28;20205;-76
2023/05/02 11:30:42;;;;;;;9.10;3.75;;;14.10;99.90;;;;;;5086579;28;20519;-76
2023/05/02 11:33:08;;;;;;;7.25;3.88;;;14.40;99.90;;;;;;5088556;28;20573;-76
2023/05/02 11:35:34;;;;;;;13.02;3.47;;;14.50;99.90;;;;;;5077688;27;20207;-74
2023/05/02 11:38:05;;;;;;;6.47;3.10;;;14.60;99.90;;;;;;5087382;28;20250;-76
2023/05/02 11:40:31;;;;;;;6.50;3.20;;;14.40;99.90;;;;;;5079549;28;20241;-76
2023/05/02 11:42:59;;;;;;;5.47;3.30;;;14.40;99.90;;;;;;5082670;28;20231;-76
2023/05/02 11:45:35;;;;;;;9.07;3.50;;;14.00;99.90;;;;;;5080121;28;20237;-75
2023/05/02 11:48:05;;;;;;;8.02;3.45;;;14.20;99.90;;;;;;5082139;28;20230;-76
2023/05/02 11:50:32;;;;;;;7.03;3.35;;;14.30;99.90;;;;;;5078113;28;20199;-76
2023/05/02 11:52:58;;;;;;;10.10;5.20;;;14.10;99.90;;;;;;5090354;28;20207;-76
2023/05/02 11:55:24;;;;;;;6.50;3.75;;;14.20;99.90;;;;;;5089421;28;20259;-76
2023/05/02 11:57:50;;;;;;;8.60;3.20;;;14.40;99.90;;;;;;5084811;28;20226;-76
2023/05/02 12:00:16;;;;;;;8.65;3.45;;;14.10;99.90;;;;;;5094720;28;20236;-76
2023/05/02 12:02:43;;;;;;;12.18;4.13;;;13.90;99.90;;;;;;5093854;28;20260;-76
2023/05/02 12:05:12;;;;;;;10.48;2.90;;;14.00;99.90;;;;;;5078470;28;20252;-76
2023/05/02 12:07:41;;;;;;;10.95;3.10;;;13.90;99.90;;;;;;5084336;28;20211;-76
2023/05/02 12:10:08;;;;;;;6.57;2.58;;;13.80;99.90;;;;;;5088494;28;20411;-76
2023/05/02 12:12:35;;;;;;;10.20;3.40;;;13.80;99.90;;;;;;5085411;28;20178;-75
2023/05/02 12:15:05;;;;;;;4.80;2.88;;;13.80;99.90;;;;;;5087905;28;20203;-76
2023/05/02 12:17:36;;;;;;;4.90;2.40;;;13.90;99.90;;;;;;5099636;28;20225;-76
2023/05/02 12:20:09;;;;;;;12.27;3.30;;;14.10;99.90;;;;;;5076627;28;20306;-76
2023/05/02 12:22:35;;;;;;;8.35;2.92;;;13.60;99.90;;;;;;5084227;27;20202;-76
2023/05/02 12:25:02;;;;;;;7.55;3.00;;;13.60;99.90;;;;;;5085351;28;20242;-77
2023/05/02 12:27:28;;;;;;;18.00;9.97;;;13.90;99.90;;;;;;5083041;28;20209;-76
2023/05/02 12:29:56;;;;;;;16.40;5.05;;;14.00;99.90;;;;;;5087920;28;20206;-77
2023/05/02 12:32:33;;;;;;;11.48;4.72;;;14.20;99.90;;;;;;5085189;28;20305;-77
2023/05/02 12:34:59;;;;;;;10.00;4.22;;;14.20;99.90;;;;;;5084625;28;20263;-77
2023/05/02 12:37:26;;;;;;;11.65;3.92;;;14.40;99.90;;;;;;5091347;28;20224;-76
2023/05/02 12:39:54;;;;;;;12.82;3.47;;;14.30;99.90;;;;;;5085956;28;20175;-76
2023/05/02 12:42:22;;;;;;;10.15;3.95;;;13.90;99.90;;;;;;5087815;28;20209;-76
2023/05/02 12:44:51;;;;;;;11.00;3.78;;;14.20;99.90;;;;;;5087877;28;20214;-76
2023/05/02 12:47:18;;;;;;;9.70;3.67;;;14.60;99.90;;;;;;5085530;28;20213;-76
2023/05/02 12:49:58;;;;;;;10.32;3.47;;;14.10;99.90;;;;;;5089002;28;20261;-76
2023/05/02 12:52:45;;;;;;;13.00;4.10;;;14.10;99.90;;;;;;5086676;28;20255;-74
2023/05/02 12:55:31;;;;;;;14.00;4.00;;;13.90;99.90;;;;;;5085011;28;20814;-75